createdAt,value
2024-03-14T00:01:27.225Z,90.38
2024-03-14T00:03:29.465Z,90.13
2024-03-14T00:05:34.949Z,89.93
2024-03-14T00:07:37.096Z,89.77
2024-03-14T00:09:39.138Z,88.82
2024-03-14T00:11:41.181Z,89.14
2024-03-14T00:13:43.208Z,89.31
2024-03-14T00:15:45.495Z,88.49
2024-03-14T00:17:50.673Z,88.64
2024-03-14T00:19:52.779Z,88.42
2024-03-14T00:21:54.820Z,87.88
2024-03-14T00:23:58.840Z,87.71
2024-03-14T00:26:00.846Z,87.90
2024-03-14T00:28:03.929Z,88.14
2024-03-14T00:30:07.041Z,88.47
2024-03-14T00:32:09.112Z,88.41
2024-03-14T00:34:11.534Z,88.79
2024-03-14T00:36:13.656Z,88.84
2024-03-14T00:38:15.702Z,88.98
2024-03-14T00:40:17.715Z,88.78
2024-03-14T00:42:19.802Z,89.13
2024-03-14T00:44:24.743Z,89.16
2024-03-14T00:46:26.884Z,88.65
2024-03-14T00:48:29.561Z,88.60
2024-03-14T00:50:31.650Z,88.76
2024-03-14T00:52:33.762Z,88.51
2024-03-14T00:54:35.904Z,88.50
2024-03-14T00:56:37.958Z,88.28
2024-03-14T00:58:40.025Z,88.28
2024-03-14T01:00:42.097Z,88.41
2024-03-14T01:02:44.690Z,88.17
2024-03-14T01:04:46.830Z,88.48
2024-03-14T01:06:49.890Z,88.40
2024-03-14T01:08:51.994Z,88.54
2024-03-14T01:10:56.880Z,88.43
2024-03-14T01:12:58.971Z,88.33
2024-03-14T01:15:01.087Z,88.40
2024-03-14T01:17:03.263Z,88.03
2024-03-14T01:19:05.455Z,88.41
2024-03-14T01:21:07.609Z,88.40
2024-03-14T01:23:09.727Z,88.49
2024-03-14T01:25:11.745Z,88.53
2024-03-14T01:27:14.350Z,88.43
2024-03-14T01:29:16.413Z,88.86
2024-03-14T01:31:18.480Z,88.48
2024-03-14T01:33:20.763Z,88.47
2024-03-14T01:35:22.849Z,88.80
2024-03-14T01:37:27.573Z,89.14
2024-03-14T01:39:29.789Z,89.24
2024-03-14T01:41:31.872Z,89.36
2024-03-14T01:43:34.342Z,89.10
2024-03-14T01:45:36.425Z,89.21
2024-03-14T01:47:38.542Z,89.43
2024-03-14T01:49:43.808Z,89.40
2024-03-14T01:51:45.863Z,89.51
2024-03-14T01:53:47.933Z,89.59
2024-03-14T01:55:50.016Z,89.87
2024-03-14T01:57:52.190Z,89.91
2024-03-14T01:59:54.212Z,90.09
2024-03-14T02:01:56.300Z,90.38
2024-03-14T02:03:58.436Z,90.10
2024-03-14T02:06:00.652Z,90.37
2024-03-14T02:08:02.760Z,90.78
2024-03-14T02:10:05.138Z,90.72
2024-03-14T02:12:07.717Z,90.82
2024-03-14T02:14:09.829Z,90.93
2024-03-14T02:16:11.852Z,90.82
2024-03-14T02:18:13.979Z,91.07
2024-03-14T02:20:16.314Z,90.91
2024-03-14T02:22:18.626Z,91.26
2024-03-14T02:24:20.667Z,91.27
2024-03-14T02:26:22.734Z,91.51
2024-03-14T02:28:24.775Z,91.59
2024-03-14T02:30:26.874Z,91.37
2024-03-14T02:32:28.974Z,91.57
2024-03-14T02:34:31.047Z,91.45
2024-03-14T02:36:33.098Z,91.42
2024-03-14T02:38:35.216Z,91.48
2024-03-14T02:40:37.411Z,91.34
2024-03-14T02:42:39.480Z,91.56
2024-03-14T02:44:41.508Z,91.62
2024-03-14T02:46:43.636Z,91.58
2024-03-14T02:48:45.813Z,91.60
2024-03-14T02:50:47.961Z,91.71
2024-03-14T02:52:49.982Z,91.77
2024-03-14T02:54:52.030Z,91.82
2024-03-14T02:56:54.128Z,91.98
2024-03-14T02:58:56.164Z,91.89
2024-03-14T03:00:58.240Z,92.02
2024-03-14T03:03:00.725Z,92.32
2024-03-14T03:05:04.103Z,92.29
2024-03-14T03:07:06.478Z,92.35
2024-03-14T03:09:08.729Z,92.41
2024-03-14T03:11:10.835Z,92.54
2024-03-14T03:13:12.859Z,92.82
2024-03-14T03:15:15.214Z,93.13
2024-03-14T03:17:17.269Z,93.23
2024-03-14T03:19:19.473Z,93.74
2024-03-14T03:21:21.640Z,93.67
2024-03-14T03:23:23.716Z,93.97
2024-03-14T03:25:25.730Z,94.81
2024-03-14T03:27:27.884Z,94.91
2024-03-14T03:29:29.913Z,95.08
2024-03-14T03:31:31.948Z,95.45
2024-03-14T03:33:34.078Z,95.37
2024-03-14T03:35:36.120Z,95.45
2024-03-14T03:37:38.264Z,95.52
2024-03-14T03:39:40.406Z,95.60
2024-03-14T03:41:42.525Z,95.65
2024-03-14T03:43:44.597Z,96.22
2024-03-14T03:45:46.725Z,96.15
2024-03-14T03:47:48.981Z,96.51
2024-03-14T03:49:51.095Z,96.64
2024-03-14T03:51:53.075Z,96.93
2024-03-14T03:53:55.130Z,97.09
2024-03-14T03:55:57.199Z,97.20
2024-03-14T03:57:59.187Z,97.25
2024-03-14T04:00:01.323Z,97.69
2024-03-14T04:02:03.341Z,98.06
2024-03-14T04:04:05.366Z,98.71
2024-03-14T04:06:07.395Z,98.96
2024-03-14T04:08:09.410Z,98.97
2024-03-14T04:10:11.398Z,99.12
2024-03-14T04:12:13.435Z,98.69
2024-03-14T04:14:15.439Z,99.18
2024-03-14T04:16:17.838Z,99.43
2024-03-14T04:18:20.076Z,99.57
2024-03-14T04:20:22.159Z,99.50
2024-03-14T04:22:24.170Z,99.59
2024-03-14T04:24:26.213Z,99.77
2024-03-14T04:26:28.264Z,99.88
2024-03-14T04:28:30.260Z,99.74
2024-03-14T04:30:32.459Z,99.90
2024-03-14T04:32:37.301Z,99.96
2024-03-14T04:34:39.882Z,99.97
2024-03-14T04:36:41.957Z,99.98
2024-03-14T04:38:43.939Z,99.97
2024-03-14T04:40:45.929Z,99.97
2024-03-14T04:42:48.347Z,100.00
2024-03-14T04:44:50.368Z,99.97
2024-03-14T04:46:52.460Z,99.97
2024-03-14T04:48:54.537Z,100.00
2024-03-14T04:50:56.557Z,100.00
2024-03-14T04:52:58.578Z,100.00
2024-03-14T04:55:00.659Z,100.00
2024-03-14T04:57:05.130Z,99.96
2024-03-14T04:59:08.646Z,99.91
2024-03-14T05:01:10.677Z,99.91
2024-03-14T05:03:15.748Z,100.00
2024-03-14T05:05:17.817Z,99.76
2024-03-14T05:07:19.850Z,99.04
2024-03-14T05:09:21.901Z,98.87
2024-03-14T05:11:24.040Z,98.53
2024-03-14T05:13:28.695Z,98.59
2024-03-14T05:15:31.263Z,98.71
2024-03-14T05:17:33.415Z,98.60
2024-03-14T05:19:35.482Z,98.90
2024-03-14T05:21:37.503Z,98.78
2024-03-14T05:23:39.493Z,98.76
2024-03-14T05:25:41.573Z,99.08
2024-03-14T05:27:44.340Z,99.76
2024-03-14T05:29:46.507Z,100.00
2024-03-14T05:31:48.509Z,100.00
2024-03-14T05:33:51.071Z,100.00
2024-03-14T05:35:53.222Z,100.00
2024-03-14T05:37:55.296Z,100.00
2024-03-14T05:39:57.336Z,100.00
2024-03-14T05:41:59.331Z,100.00
2024-03-14T05:44:01.384Z,100.00
2024-03-14T05:46:03.461Z,100.00
2024-03-14T05:48:08.711Z,100.00
2024-03-14T05:50:13.530Z,100.00
2024-03-14T05:52:15.566Z,100.00
2024-03-14T05:54:17.642Z,100.00
2024-03-14T05:56:19.707Z,100.00
2024-03-14T05:58:21.755Z,100.00
2024-03-14T06:00:23.781Z,100.00
2024-03-14T06:02:25.874Z,100.00
2024-03-14T06:04:27.844Z,100.00
2024-03-14T06:06:29.946Z,100.00
2024-03-14T06:08:32.085Z,100.00
2024-03-14T06:10:34.105Z,100.00
2024-03-14T06:12:36.228Z,100.00
2024-03-14T06:14:38.349Z,100.00
2024-03-14T06:16:40.504Z,100.00
2024-03-14T06:18:42.662Z,100.00
2024-03-14T06:20:44.775Z,100.00
2024-03-14T06:22:46.804Z,100.00
2024-03-14T06:24:48.868Z,100.00
2024-03-14T06:26:53.746Z,100.00
2024-03-14T06:28:56.060Z,100.00
2024-03-14T06:30:58.148Z,100.00
2024-03-14T06:33:00.344Z,100.00
2024-03-14T06:35:04.937Z,100.00
2024-03-14T06:37:06.970Z,100.00
2024-03-14T06:39:09.306Z,100.00
2024-03-14T06:41:11.480Z,100.00
2024-03-14T06:43:13.531Z,100.00
2024-03-14T06:45:15.860Z,100.00
2024-03-14T06:47:18.190Z,100.00
2024-03-14T06:49:20.295Z,100.00
2024-03-14T06:51:22.367Z,100.00
2024-03-14T06:53:24.415Z,100.00
2024-03-14T06:55:26.550Z,100.00
2024-03-14T06:57:31.308Z,100.00
2024-03-14T06:59:33.331Z,100.00
2024-03-14T07:01:35.422Z,100.00
2024-03-14T07:03:37.494Z,99.74
2024-03-14T07:05:39.526Z,99.21
2024-03-14T07:07:41.885Z,98.45
2024-03-14T07:09:44.003Z,98.51
2024-03-14T07:11:46.266Z,98.03
2024-03-14T07:13:48.288Z,97.50
2024-03-14T07:15:50.668Z,97.20
2024-03-14T07:17:57.048Z,96.47
2024-03-14T07:19:59.306Z,96.15
2024-03-14T07:22:01.348Z,95.65
2024-03-14T07:24:03.516Z,96.05
2024-03-14T07:26:05.616Z,95.69
2024-03-14T07:28:07.583Z,95.61
2024-03-14T07:30:10.167Z,95.21
2024-03-14T07:32:12.255Z,94.54
2024-03-14T07:34:14.298Z,94.29
2024-03-14T07:36:16.813Z,93.48
2024-03-14T07:38:19.052Z,91.65
2024-03-14T07:40:21.054Z,90.19
2024-03-14T07:42:23.192Z,88.69
2024-03-14T07:44:32.057Z,87.57
2024-03-14T07:46:35.657Z,87.91
2024-03-14T07:48:37.766Z,86.73
2024-03-14T07:50:39.940Z,86.31
2024-03-14T07:52:42.026Z,84.73
2024-03-14T07:54:44.245Z,84.18
2024-03-14T07:56:46.277Z,84.41
2024-03-14T07:58:48.279Z,84.56
2024-03-14T08:00:50.307Z,84.54
2024-03-14T08:02:52.389Z,83.02
2024-03-14T08:04:54.390Z,83.01
2024-03-14T08:06:56.451Z,81.97
2024-03-14T08:08:58.514Z,81.08
2024-03-14T08:11:00.555Z,81.00
2024-03-14T08:13:02.599Z,81.79
2024-03-14T08:15:05.176Z,81.55
2024-03-14T08:17:07.196Z,81.57
2024-03-14T08:19:10.040Z,81.58
2024-03-14T08:21:12.122Z,80.72
2024-03-14T08:23:14.190Z,79.41
2024-03-14T08:25:16.209Z,78.53
2024-03-14T08:27:18.280Z,78.55
2024-03-14T08:29:20.551Z,78.34
2024-03-14T08:31:22.597Z,77.72
2024-03-14T08:33:25.498Z,76.13
2024-03-14T08:35:28.004Z,76.23
2024-03-14T08:37:30.076Z,74.81
2024-03-14T08:39:32.176Z,73.74
2024-03-14T08:41:34.227Z,73.08
2024-03-14T08:43:36.313Z,72.40
2024-03-14T08:45:38.562Z,70.98
2024-03-14T08:47:40.741Z,70.47
2024-03-14T08:49:42.772Z,68.84
2024-03-14T08:51:44.982Z,68.57
2024-03-14T08:53:47.074Z,68.17
2024-03-14T08:55:49.103Z,68.64
2024-03-14T08:57:53.902Z,68.34
2024-03-14T08:59:56.004Z,67.27
2024-03-14T09:01:58.175Z,67.10
2024-03-14T09:04:00.258Z,66.53
2024-03-14T09:06:02.341Z,65.90
2024-03-14T09:08:04.710Z,64.89
2024-03-14T09:10:07.067Z,63.75
2024-03-14T09:12:14.054Z,63.50
2024-03-14T09:14:16.396Z,62.67
2024-03-14T09:16:18.570Z,60.73
2024-03-14T09:18:20.803Z,59.66
2024-03-14T09:20:22.952Z,60.13
2024-03-14T09:22:25.049Z,60.16
2024-03-14T09:24:28.172Z,59.63
2024-03-14T09:26:30.191Z,59.25
2024-03-14T09:28:32.237Z,59.38
2024-03-14T09:30:34.320Z,59.92
2024-03-14T09:32:36.491Z,59.63
2024-03-14T09:34:38.553Z,59.82
2024-03-14T09:36:40.647Z,59.81
2024-03-14T09:38:42.815Z,59.97
2024-03-14T09:40:45.090Z,59.25
2024-03-14T09:42:47.126Z,59.82
2024-03-14T09:44:49.159Z,59.31
2024-03-14T09:46:52.185Z,59.00
2024-03-14T09:48:54.249Z,59.19
2024-03-14T09:50:56.347Z,57.81
2024-03-14T09:52:58.403Z,57.41
2024-03-14T09:55:00.446Z,58.16
2024-03-14T09:57:02.513Z,57.90
2024-03-14T09:59:04.577Z,58.46
2024-03-14T10:01:06.601Z,58.76
2024-03-14T10:03:08.716Z,59.16
2024-03-14T10:05:10.920Z,58.71
2024-03-14T10:07:12.948Z,58.02
2024-03-14T10:09:20.180Z,58.42
2024-03-14T10:11:26.249Z,58.55
2024-03-14T10:13:28.324Z,59.09
2024-03-14T10:15:30.429Z,59.16
2024-03-14T10:17:32.561Z,57.94
2024-03-14T10:19:34.558Z,58.67
2024-03-14T10:21:36.646Z,58.31
2024-03-14T10:23:38.829Z,58.08
2024-03-14T10:25:40.949Z,57.66
2024-03-14T10:27:53.230Z,57.55
2024-03-14T10:29:59.908Z,56.69
2024-03-14T10:32:02.014Z,56.80
2024-03-14T10:34:04.328Z,57.05
2024-03-14T10:36:06.784Z,56.89
2024-03-14T10:38:09.280Z,55.57
2024-03-14T10:40:11.920Z,56.20
2024-03-14T10:42:13.934Z,54.61
2024-03-14T10:44:16.026Z,54.74
2024-03-14T10:46:18.155Z,55.46
2024-03-14T10:48:21.782Z,55.05
2024-03-14T10:50:23.976Z,55.45
2024-03-14T10:52:26.045Z,55.37
2024-03-14T10:54:28.175Z,54.44
2024-03-14T10:56:30.226Z,54.86
2024-03-14T10:58:32.293Z,54.77
2024-03-14T11:00:34.427Z,55.67
2024-03-14T11:02:36.441Z,55.83
2024-03-14T11:04:38.463Z,55.50
2024-03-14T11:06:40.559Z,55.43
2024-03-14T11:08:42.577Z,54.75
2024-03-14T11:10:44.738Z,54.91
2024-03-14T11:12:46.985Z,55.44
2024-03-14T11:14:49.219Z,55.01
2024-03-14T11:16:51.288Z,54.81
2024-03-14T11:18:53.623Z,54.69
2024-03-14T11:20:58.545Z,54.43
2024-03-14T11:23:00.683Z,53.97
2024-03-14T11:25:02.694Z,53.15
2024-03-14T11:27:04.800Z,53.87
2024-03-14T11:29:09.129Z,53.82
2024-03-14T11:31:11.117Z,54.02
2024-03-14T11:33:13.322Z,53.67
2024-03-14T11:35:37.346Z,53.41
2024-03-14T11:37:50.098Z,53.43
2024-03-14T11:39:52.130Z,53.41
2024-03-14T11:42:13.111Z,53.53
2024-03-14T11:44:15.478Z,54.50
2024-03-14T11:46:17.630Z,54.55
2024-03-14T11:48:20.177Z,54.43
2024-03-14T11:50:22.405Z,54.46
2024-03-14T11:52:24.572Z,54.55
2024-03-14T11:54:26.678Z,54.34
2024-03-14T11:56:28.787Z,54.90
2024-03-14T11:58:30.887Z,55.02
2024-03-14T12:00:32.959Z,55.12
2024-03-14T12:02:35.065Z,55.82
2024-03-14T12:04:37.151Z,56.09
2024-03-14T12:06:39.365Z,56.38
2024-03-14T12:08:41.510Z,56.38
2024-03-14T12:10:43.636Z,55.84
2024-03-14T12:12:48.596Z,56.41
2024-03-14T12:14:55.997Z,56.71
2024-03-14T12:16:58.046Z,56.99
2024-03-14T12:19:00.170Z,57.11
2024-03-14T12:21:02.795Z,57.06
2024-03-14T12:23:05.137Z,57.67
2024-03-14T12:25:07.462Z,58.12
2024-03-14T12:27:10.294Z,57.70
2024-03-14T12:29:15.329Z,57.69
2024-03-14T12:31:17.306Z,58.01
2024-03-14T12:33:19.690Z,57.86
2024-03-14T12:35:21.757Z,57.86
2024-03-14T12:37:26.869Z,58.25
2024-03-14T12:39:29.392Z,57.81
2024-03-14T12:41:31.425Z,57.72
2024-03-14T12:43:33.424Z,58.06
2024-03-14T12:45:35.656Z,58.25
2024-03-14T12:47:37.876Z,58.55
2024-03-14T12:49:40.067Z,59.10
2024-03-14T12:51:42.202Z,59.75
2024-03-14T12:53:46.105Z,60.14
2024-03-14T12:55:51.287Z,60.58
2024-03-14T12:57:53.404Z,60.82
2024-03-14T12:59:55.581Z,61.25
2024-03-14T13:01:57.599Z,61.36
2024-03-14T13:03:59.770Z,61.65
2024-03-14T13:06:01.907Z,62.55
2024-03-14T13:08:07.382Z,62.75
2024-03-14T13:10:10.517Z,62.55
2024-03-14T13:12:18.471Z,62.79
2024-03-14T13:14:20.514Z,62.42
2024-03-14T13:16:22.621Z,62.80
2024-03-14T13:18:24.741Z,63.06
2024-03-14T13:20:26.884Z,63.47
2024-03-14T13:22:28.941Z,63.33
2024-03-14T13:24:31.092Z,62.86
2024-03-14T13:26:33.188Z,62.04
2024-03-14T13:28:35.236Z,61.15
2024-03-14T13:30:37.287Z,61.28
2024-03-14T13:32:39.420Z,61.75
2024-03-14T13:34:41.623Z,61.90
2024-03-14T13:36:43.672Z,61.40
2024-03-14T13:38:45.746Z,61.41
2024-03-14T13:40:47.788Z,62.17
2024-03-14T13:42:49.894Z,63.06
2024-03-14T13:44:51.937Z,63.41
2024-03-14T13:46:54.186Z,62.97
2024-03-14T13:48:56.367Z,63.28
2024-03-14T13:51:01.882Z,63.79
2024-03-14T13:53:04.030Z,64.86
2024-03-14T13:55:07.333Z,65.59
2024-03-14T13:57:09.389Z,65.78
2024-03-14T13:59:11.498Z,65.74
2024-03-14T14:01:13.574Z,66.27
2024-03-14T14:03:15.921Z,65.93
2024-03-14T14:05:18.108Z,65.05
2024-03-14T14:07:20.144Z,65.43
2024-03-14T14:09:22.192Z,65.75
2024-03-14T14:11:24.274Z,65.75
2024-03-14T14:13:26.354Z,65.65
2024-03-14T14:15:28.467Z,66.15
2024-03-14T14:17:30.623Z,65.81
2024-03-14T14:19:32.717Z,65.42
2024-03-14T14:21:34.768Z,64.90
2024-03-14T14:23:36.965Z,63.78
2024-03-14T14:25:39.244Z,63.46
2024-03-14T14:27:41.517Z,62.32
2024-03-14T14:29:43.585Z,62.24
2024-03-14T14:31:45.675Z,62.11
2024-03-14T14:33:47.778Z,62.03
2024-03-14T14:35:49.885Z,62.22
2024-03-14T14:37:51.914Z,61.56
2024-03-14T14:39:54.094Z,61.28
2024-03-14T14:41:56.232Z,60.41
2024-03-14T14:43:58.400Z,60.64
2024-03-14T14:46:00.579Z,61.26
2024-03-14T14:48:02.766Z,61.32
2024-03-14T14:50:05.773Z,61.02
2024-03-14T14:52:07.854Z,60.49
2024-03-14T14:54:10.075Z,60.35
2024-03-14T14:56:12.206Z,60.37
2024-03-14T14:58:14.363Z,60.38
2024-03-14T15:00:16.632Z,60.17
2024-03-14T15:02:18.824Z,60.67
2024-03-14T15:04:20.849Z,60.19
2024-03-14T15:06:22.964Z,59.61
2024-03-14T15:08:25.216Z,59.76
2024-03-14T15:10:27.288Z,59.79
2024-03-14T15:12:29.407Z,59.91
2024-03-14T15:14:31.467Z,60.43
2024-03-14T15:16:33.514Z,60.73
2024-03-14T15:18:37.435Z,60.12
2024-03-14T15:20:40.298Z,60.85
2024-03-14T15:22:43.370Z,60.37
2024-03-14T15:24:45.554Z,60.13
2024-03-14T15:26:47.700Z,60.33
2024-03-14T15:28:49.778Z,60.19
2024-03-14T15:30:51.907Z,59.94
2024-03-14T15:32:54.121Z,60.53
2024-03-14T15:34:56.286Z,60.18
2024-03-14T15:36:58.843Z,60.32
2024-03-14T15:39:01.010Z,60.67
2024-03-14T15:41:03.131Z,61.15
2024-03-14T15:43:05.463Z,61.60
2024-03-14T15:45:08.052Z,62.01
2024-03-14T15:47:10.187Z,62.58
2024-03-14T15:49:12.218Z,62.66
2024-03-14T15:51:14.318Z,62.94
2024-03-14T15:53:16.468Z,63.61
2024-03-14T15:55:18.589Z,63.95
2024-03-14T15:57:22.854Z,63.90
2024-03-14T15:59:25.205Z,63.80
2024-03-14T16:01:27.312Z,64.19
2024-03-14T16:03:29.454Z,64.72
2024-03-14T16:05:31.498Z,65.10
2024-03-14T16:07:33.558Z,65.35
2024-03-14T16:09:36.874Z,65.33
2024-03-14T16:11:39.002Z,65.52
2024-03-14T16:13:41.065Z,65.89
2024-03-14T16:15:43.129Z,66.28
2024-03-14T16:17:45.440Z,66.58
2024-03-14T16:19:53.689Z,66.63
2024-03-14T16:21:55.809Z,66.75
2024-03-14T16:23:58.137Z,67.01
2024-03-14T16:26:01.018Z,67.08
2024-03-14T16:28:07.993Z,67.13
2024-03-14T16:30:10.514Z,67.66
2024-03-14T16:32:12.619Z,67.44
2024-03-14T16:34:14.753Z,67.26
2024-03-14T16:36:17.069Z,67.25
2024-03-14T16:38:19.134Z,67.41
2024-03-14T16:40:24.357Z,67.56
2024-03-14T16:42:26.606Z,67.44
2024-03-14T16:44:28.767Z,67.77
2024-03-14T16:46:30.832Z,67.68
2024-03-14T16:48:32.895Z,67.68
2024-03-14T16:50:34.970Z,67.80
2024-03-14T16:52:37.029Z,67.91
2024-03-14T16:54:39.238Z,67.90
2024-03-14T16:56:41.422Z,68.11
2024-03-14T16:58:43.469Z,68.39
2024-03-14T17:00:45.806Z,68.33
2024-03-14T17:02:47.947Z,68.49
2024-03-14T17:04:49.986Z,68.49
2024-03-14T17:06:52.005Z,68.79
2024-03-14T17:08:56.844Z,68.82
2024-03-14T17:10:59.011Z,68.88
2024-03-14T17:13:01.198Z,69.04
2024-03-14T17:15:03.354Z,69.24
2024-03-14T17:17:12.367Z,69.31
2024-03-14T17:19:15.299Z,69.79
2024-03-14T17:21:17.376Z,69.87
2024-03-14T17:23:19.459Z,70.09
2024-03-14T17:25:24.690Z,70.07
2024-03-14T17:27:26.791Z,70.23
2024-03-14T17:29:30.845Z,71.00
2024-03-14T17:31:34.862Z,70.89
2024-03-14T17:33:37.101Z,70.36
2024-03-14T17:35:39.254Z,70.13
2024-03-14T17:37:41.355Z,70.00
2024-03-14T17:39:46.188Z,69.70
2024-03-14T17:41:48.297Z,70.01
2024-03-14T17:43:50.371Z,70.36
2024-03-14T17:45:52.480Z,69.86
2024-03-14T17:47:54.754Z,69.97
2024-03-14T17:49:57.858Z,69.78
2024-03-14T17:51:59.885Z,69.98
2024-03-14T17:54:02.108Z,69.77
2024-03-14T17:56:04.754Z,70.08
2024-03-14T17:58:07.134Z,70.77
2024-03-14T18:00:10.129Z,71.03
2024-03-14T18:02:12.293Z,71.45
2024-03-14T18:04:14.392Z,71.69
2024-03-14T18:06:16.449Z,72.16
2024-03-14T18:08:18.495Z,72.22
2024-03-14T18:10:20.576Z,72.31
2024-03-14T18:12:22.682Z,72.34
2024-03-14T18:14:24.822Z,72.24
2024-03-14T18:16:27.576Z,72.20
2024-03-14T18:18:29.741Z,72.04
2024-03-14T18:20:31.927Z,71.67
2024-03-14T18:22:34.024Z,71.80
2024-03-14T18:24:36.748Z,71.87
2024-03-14T18:26:38.820Z,71.91
2024-03-14T18:28:40.858Z,72.17
2024-03-14T18:30:42.901Z,72.02
2024-03-14T18:32:46.028Z,72.16
2024-03-14T18:34:48.204Z,72.41
2024-03-14T18:36:50.309Z,72.99
2024-03-14T18:38:52.981Z,73.71
2024-03-14T18:40:55.488Z,74.47
2024-03-14T18:42:57.893Z,74.90
2024-03-14T18:45:00.385Z,75.46
2024-03-14T18:47:02.508Z,76.34
2024-03-14T18:49:11.894Z,76.79
2024-03-14T18:51:20.015Z,77.24
2024-03-14T18:53:30.720Z,77.83
2024-03-14T18:55:34.336Z,78.38
2024-03-14T18:57:36.744Z,78.75
2024-03-14T18:59:38.893Z,79.37
2024-03-14T19:01:41.959Z,79.79
2024-03-14T19:03:44.805Z,80.17
2024-03-14T19:05:46.955Z,80.58
2024-03-14T19:07:49.346Z,80.92
2024-03-14T19:09:51.512Z,81.07
2024-03-14T19:11:53.895Z,81.37
2024-03-14T19:13:56.223Z,81.23
2024-03-14T19:15:58.532Z,82.08
2024-03-14T19:18:00.950Z,83.12
2024-03-14T19:20:04.541Z,83.29
2024-03-14T19:22:07.026Z,83.75
2024-03-14T19:24:09.800Z,84.40
2024-03-14T19:26:12.379Z,84.89
2024-03-14T19:28:15.322Z,85.53
2024-03-14T19:30:17.698Z,85.67
2024-03-14T19:32:20.036Z,86.05
2024-03-14T19:34:22.545Z,86.50
2024-03-14T19:36:24.997Z,86.25
2024-03-14T19:38:27.541Z,86.86
2024-03-14T19:40:30.494Z,87.05
2024-03-14T19:42:33.157Z,87.51
2024-03-14T19:44:35.600Z,88.03
2024-03-14T19:46:39.071Z,88.60
2024-03-14T19:48:41.848Z,89.51
2024-03-14T19:50:44.513Z,89.67
2024-03-14T19:52:47.169Z,89.79
2024-03-14T19:54:49.395Z,89.71
2024-03-14T19:56:51.715Z,89.97
2024-03-14T19:58:54.194Z,90.30
2024-03-14T20:00:57.225Z,90.65
2024-03-14T20:03:00.056Z,90.80
2024-03-14T20:05:02.370Z,91.66
2024-03-14T20:07:05.095Z,91.67
2024-03-14T20:09:07.485Z,92.10
2024-03-14T20:11:10.053Z,92.61
2024-03-14T20:13:12.328Z,92.42
2024-03-14T20:15:14.704Z,92.34
2024-03-14T20:17:18.861Z,92.21
2024-03-14T20:19:22.484Z,92.96
2024-03-14T20:21:29.292Z,93.59
2024-03-14T20:23:34.617Z,94.14
2024-03-14T20:25:36.632Z,94.34
2024-03-14T20:27:39.327Z,94.60
2024-03-14T20:29:41.595Z,94.70
2024-03-14T20:31:43.900Z,94.55
2024-03-14T20:33:46.615Z,94.57
2024-03-14T20:35:49.121Z,94.58
2024-03-14T20:37:52.261Z,94.66
2024-03-14T20:42:00.419Z,95.01
2024-03-14T20:44:05.443Z,95.54
2024-03-14T20:46:07.795Z,96.18
2024-03-14T20:48:10.472Z,96.71
2024-03-14T20:50:12.716Z,96.52
2024-03-14T20:52:14.931Z,96.53
2024-03-14T20:54:16.987Z,96.61
2024-03-14T20:56:19.780Z,97.02
2024-03-14T20:58:21.900Z,97.07
2024-03-14T21:00:24.005Z,97.46
2024-03-14T21:02:26.557Z,97.94
2024-03-14T21:04:29.135Z,98.32
2024-03-14T21:06:31.444Z,98.33
2024-03-14T21:08:34.017Z,98.67
2024-03-14T21:10:36.145Z,99.30
2024-03-14T21:12:39.298Z,99.99
2024-03-14T21:14:42.278Z,99.85
2024-03-14T21:16:44.296Z,99.93
2024-03-14T21:18:46.465Z,100.00
2024-03-14T21:20:48.678Z,100.00
2024-03-14T21:22:50.795Z,100.00
2024-03-14T21:24:52.912Z,100.00
2024-03-14T21:26:54.953Z,100.00
2024-03-14T21:28:56.979Z,100.00
2024-03-14T21:30:59.147Z,100.00
2024-03-14T21:33:01.209Z,100.00
2024-03-14T21:35:03.405Z,100.00
2024-03-14T21:37:05.478Z,100.00
2024-03-14T21:39:07.627Z,100.00
2024-03-14T21:41:09.742Z,100.00
2024-03-14T21:43:11.784Z,100.00
2024-03-14T21:45:13.898Z,100.00
2024-03-14T21:47:16.012Z,100.00
2024-03-14T21:49:18.354Z,100.00
2024-03-14T21:51:20.507Z,100.00
2024-03-14T21:53:22.636Z,100.00
2024-03-14T21:55:24.642Z,100.00
2024-03-14T21:57:26.741Z,100.00
2024-03-14T21:59:28.800Z,100.00
2024-03-14T22:01:30.900Z,100.00
2024-03-14T22:03:33.040Z,100.00
2024-03-14T22:05:35.196Z,100.00
2024-03-14T22:07:37.275Z,100.00
2024-03-14T22:09:39.450Z,100.00
2024-03-14T22:11:41.493Z,100.00
2024-03-14T22:13:43.549Z,100.00
2024-03-14T22:15:45.832Z,100.00
2024-03-14T22:17:47.986Z,100.00
2024-03-14T22:19:50.062Z,100.00
2024-03-14T22:21:52.183Z,100.00
2024-03-14T22:23:54.276Z,100.00
2024-03-14T22:25:59.177Z,100.00
2024-03-14T22:28:01.143Z,100.00
2024-03-14T22:30:03.237Z,100.00
2024-03-14T22:32:05.674Z,100.00
2024-03-14T22:34:10.836Z,100.00
2024-03-14T22:36:13.006Z,100.00
2024-03-14T22:38:15.134Z,100.00
2024-03-14T22:40:17.118Z,100.00
2024-03-14T22:42:19.352Z,100.00
2024-03-14T22:44:21.842Z,100.00
2024-03-14T22:46:23.886Z,100.00
2024-03-14T22:48:26.057Z,100.00
2024-03-14T22:50:30.649Z,100.00
2024-03-14T22:52:32.670Z,100.00
2024-03-14T22:54:34.720Z,100.00
2024-03-14T22:56:37.242Z,100.00
2024-03-14T22:58:39.340Z,100.00
2024-03-14T23:00:41.414Z,100.00
2024-03-14T23:02:43.993Z,100.00
2024-03-14T23:04:46.203Z,100.00
2024-03-14T23:06:48.442Z,100.00
2024-03-14T23:08:50.511Z,100.00
2024-03-14T23:10:53.744Z,100.00
2024-03-14T23:12:55.871Z,100.00
2024-03-14T23:14:57.990Z,100.00
2024-03-14T23:17:00.036Z,100.00
2024-03-14T23:19:02.118Z,100.00
2024-03-14T23:21:04.376Z,100.00
2024-03-14T23:23:06.403Z,100.00
2024-03-14T23:25:09.239Z,100.00
2024-03-14T23:27:11.384Z,100.00
2024-03-14T23:29:13.532Z,100.00
2024-03-14T23:31:15.602Z,100.00
2024-03-14T23:33:17.687Z,100.00
2024-03-14T23:35:19.807Z,100.00
2024-03-14T23:37:21.770Z,100.00
2024-03-14T23:39:23.848Z,100.00
2024-03-14T23:41:25.869Z,100.00
2024-03-14T23:43:27.853Z,100.00
2024-03-14T23:45:29.988Z,100.00
2024-03-14T23:47:32.459Z,100.00
2024-03-14T23:49:34.535Z,100.00
2024-03-14T23:51:36.683Z,100.00
2024-03-14T23:53:38.764Z,100.00
2024-03-14T23:55:40.841Z,100.00
2024-03-14T23:57:42.911Z,100.00
2024-03-14T23:59:44.913Z,100.00
